Time;durP1;ratioP1;P1;durP2;ratioP2;P2;SDS_P1;SDS_P2;PMS_P1;PMS_P2;Temp;Humidity;BMP_temperature;BMP_pressure;BME280_temperature;BME280_humidity;BME280_pressure;Samples;Min_cycle;Max_cycle;Signal;HPM_P1;HPM_P2
2021/05/13 00:01:30;;;;;;;3.75;2.33;;;;;;;12.54;60.90;98943.80;1772619;80;21046;-70
2021/05/13 00:03:56;;;;;;;3.80;2.80;;;;;;;12.42;61.46;98943.61;1760922;79;21564;-70
2021/05/13 00:06:23;;;;;;;4.35;2.67;;;;;;;12.22;62.08;98940.94;1785967;80;21016;-70
2021/05/13 00:08:56;;;;;;;4.50;2.60;;;;;;;12.12;62.41;98934.31;1759320;81;21046;-70
2021/05/13 00:11:20;;;;;;;6.47;2.55;;;;;;;12.14;62.45;98944.78;1767764;79;21619;-70
2021/05/13 00:13:46;;;;;;;4.53;2.95;;;;;;;12.11;62.55;98949.01;1760555;81;21074;-70
2021/05/13 00:16:13;;;;;;;4.05;2.80;;;;;;;12.04;62.99;98939.95;1763383;79;20991;-70
2021/05/13 00:18:40;;;;;;;4.35;3.45;;;;;;;11.93;63.69;98947.02;1761264;80;21069;-69
2021/05/13 00:21:07;;;;;;;6.67;4.95;;;;;;;11.80;64.09;98938.00;1763388;79;21107;-69
2021/05/13 00:23:33;;;;;;;5.45;4.20;;;;;;;11.71;64.22;98932.16;1760840;81;21612;-69
2021/05/13 00:26:00;;;;;;;4.60;3.20;;;;;;;11.71;64.46;98931.34;1756901;80;21565;-69
2021/05/13 00:28:26;;;;;;;3.62;2.70;;;;;;;11.74;64.53;98929.73;1765194;79;21655;-69
2021/05/13 00:30:53;;;;;;;2.80;2.30;;;;;;;11.67;64.77;98931.27;1766237;80;21565;-69
2021/05/13 00:33:19;;;;;;;4.47;3.00;;;;;;;11.57;65.07;98929.90;1777847;79;21636;-69
2021/05/13 00:35:45;;;;;;;4.10;2.60;;;;;;;11.46;65.31;98932.17;1771719;80;21302;-69
2021/05/13 00:38:11;;;;;;;3.65;2.92;;;;;;;11.46;65.51;98922.91;1788257;79;21034;-69
2021/05/13 00:40:38;;;;;;;4.40;3.10;;;;;;;11.57;65.30;98922.81;1780698;80;21066;-69
2021/05/13 00:43:04;;;;;;;4.15;3.05;;;;;;;11.63;65.14;98921.42;1758358;80;21042;-69
2021/05/13 00:45:30;;;;;;;3.92;2.60;;;;;;;11.59;65.26;98919.53;1749810;80;21058;-69
2021/05/13 00:50:26;;;;;;;4.45;2.58;;;;;;;11.40;65.68;98920.30;1757456;80;21039;-70
2021/05/13 00:52:52;;;;;;;4.45;2.50;;;;;;;11.28;66.06;98912.94;1759729;81;21039;-70
2021/05/13 00:55:19;;;;;;;5.10;2.67;;;;;;;11.27;66.23;98907.29;1749034;80;21030;-69
2021/05/13 00:57:49;;;;;;;4.22;2.70;;;;;;;11.37;66.02;98899.86;1758700;81;20987;-69
2021/05/13 01:03:00;;;;;;;3.90;2.75;;;;;;;11.18;66.38;98897.51;1760150;81;21031;-69
2021/05/13 01:05:27;;;;;;;5.22;2.80;;;;;;;11.05;66.72;98892.44;1749562;81;21069;-69
2021/05/13 01:07:53;;;;;;;4.05;2.83;;;;;;;11.07;66.95;98900.24;1766985;80;21026;-69
2021/05/13 01:10:20;;;;;;;3.98;2.90;;;;;;;11.15;66.52;98895.97;1755434;80;21078;-69
2021/05/13 01:12:47;;;;;;;4.97;2.90;;;;;;;11.10;66.63;98894.67;1772431;80;21057;-69
2021/05/13 01:18:08;;;;;;;3.83;2.98;;;;;;;10.93;66.88;98896.98;1749708;80;21021;-69
2021/05/13 01:20:31;;;;;;;4.00;2.90;;;;;;;10.84;67.23;98898.25;1748073;81;21635;-68
2021/05/13 01:22:58;;;;;;;4.65;2.98;;;;;;;10.84;67.23;98900.39;1762826;80;21078;-68
2021/05/13 01:25:25;;;;;;;4.53;3.10;;;;;;;10.90;67.19;98897.23;1749597;80;21548;-69
2021/05/13 01:28:00;;;;;;;4.80;3.30;;;;;;;10.86;67.32;98909.05;1748118;80;21077;-69
2021/05/13 01:30:28;;;;;;;;;;;;;;;10.89;67.33;98911.42;1752009;80;21037;-69
2021/05/13 01:32:59;;;;;;;3.85;3.10;;;;;;;10.88;67.33;98916.38;1745861;82;20495;-69
2021/05/13 01:35:26;;;;;;;5.05;3.15;;;;;;;10.81;67.51;98912.07;1761916;80;20987;-69
2021/05/13 01:38:11;;;;;;;4.75;3.12;;;;;;;10.89;67.46;98908.77;1768842;81;21034;-68
2021/05/13 01:40:38;;;;;;;5.20;3.00;;;;;;;10.97;67.21;98898.39;1765159;80;21090;-69
2021/05/13 01:43:04;;;;;;;4.60;3.47;;;;;;;10.89;67.41;98899.52;1722873;83;21554;-69
2021/05/13 01:45:32;;;;;;;3.60;3.10;;;;;;;10.82;67.66;98891.77;1713450;82;21573;-69
2021/05/13 01:48:04;;;;;;;3.33;2.92;;;;;;;10.79;67.93;98895.98;1694342;83;21034;-69
2021/05/13 01:50:33;;;;;;;3.60;2.98;;;;;;;10.72;68.01;98890.88;1708872;83;21519;-68
2021/05/13 01:53:01;;;;;;;5.10;2.90;;;;;;;10.74;67.98;98886.28;1673914;84;21056;-69
2021/05/13 01:55:28;;;;;;;3.75;2.80;;;;;;;10.87;67.74;98886.92;1683042;84;21044;-69
2021/05/13 01:57:54;;;;;;;4.75;3.02;;;;;;;10.83;67.88;98882.84;1728155;82;21098;-69
2021/05/13 02:00:21;;;;;;;5.10;2.95;;;;;;;10.73;68.12;98886.77;1758295;81;21084;-70
2021/05/13 02:02:50;;;;;;;3.87;3.10;;;;;;;10.66;68.37;98879.00;1750018;80;21562;-69
2021/05/13 02:05:17;;;;;;;3.95;2.75;;;;;;;10.55;68.69;98885.20;1718493;83;21031;-70
2021/05/13 02:07:44;;;;;;;4.15;3.25;;;;;;;10.60;68.70;98890.94;1770274;80;21078;-69
2021/05/13 02:10:12;;;;;;;3.60;2.85;;;;;;;10.62;68.62;98889.48;1744094;80;21077;-69
2021/05/13 02:12:39;;;;;;;3.80;3.12;;;;;;;10.51;68.90;98902.27;1740203;81;21086;-69
2021/05/13 02:15:10;;;;;;;4.12;2.90;;;;;;;10.43;69.26;98913.48;1763142;80;21022;-69
2021/05/13 02:17:36;;;;;;;4.25;3.10;;;;;;;10.35;69.43;98902.69;1764771;81;21558;-69
2021/05/13 02:20:06;;;;;;;5.30;3.35;;;;;;;10.32;69.64;98908.25;1760911;80;21588;-69
2021/05/13 02:22:32;;;;;;;6.03;3.75;;;;;;;10.44;69.54;98903.77;1766038;81;21046;-68
2021/05/13 02:24:58;;;;;;;5.00;3.75;;;;;;;10.48;69.44;98896.75;1743424;80;21042;-69
2021/05/13 02:27:25;;;;;;;6.53;3.67;;;;;;;10.46;69.56;98897.84;1762147;80;21048;-69
2021/05/13 02:29:51;;;;;;;5.95;4.10;;;;;;;10.42;69.76;98898.61;1747694;80;21043;-68
2021/05/13 02:32:18;;;;;;;6.50;4.12;;;;;;;10.35;69.94;98891.30;1713418;82;21121;-68
2021/05/13 02:34:44;;;;;;;5.60;3.83;;;;;;;10.32;70.18;98887.10;1761052;81;21531;-68
2021/05/13 02:37:10;;;;;;;7.03;4.05;;;;;;;10.49;69.95;98880.43;1766695;80;21562;-69
2021/05/13 02:39:37;;;;;;;5.97;3.95;;;;;;;10.54;69.73;98888.81;1767533;81;21569;-69
2021/05/13 02:42:04;;;;;;;6.05;4.22;;;;;;;10.47;69.85;98881.89;1744238;80;21608;-70
2021/05/13 02:44:30;;;;;;;7.25;3.98;;;;;;;10.42;70.05;98893.33;1746705;82;21033;-69
2021/05/13 02:46:56;;;;;;;5.30;3.98;;;;;;;10.41;70.16;98893.43;1746812;80;21021;-70
2021/05/13 02:49:23;;;;;;;8.35;4.30;;;;;;;10.56;69.86;98890.00;1763930;81;21577;-70
2021/05/13 02:51:49;;;;;;;5.80;3.83;;;;;;;10.62;69.72;98891.63;1748137;81;20993;-70
2021/05/13 02:54:15;;;;;;;5.55;3.75;;;;;;;10.58;69.84;98894.19;1747507;80;21038;-69
2021/05/13 02:56:42;;;;;;;6.70;4.15;;;;;;;10.52;70.05;98896.02;1756243;80;21685;-69
2021/05/13 02:59:10;;;;;;;6.17;3.87;;;;;;;10.47;70.32;98899.53;1751270;80;21484;-70
2021/05/13 03:01:38;;;;;;;6.33;4.12;;;;;;;10.47;70.42;98887.64;1746799;82;21051;-69
2021/05/13 03:04:04;;;;;;;4.70;4.10;;;;;;;10.61;70.16;98896.59;1756068;80;21038;-69
2021/05/13 03:06:31;;;;;;;6.65;4.65;;;;;;;10.56;70.36;98895.28;1749674;80;21088;-69
2021/05/13 03:08:59;;;;;;;5.58;4.20;;;;;;;10.47;70.80;98899.53;1758118;81;21070;-69
2021/05/13 03:11:27;;;;;;;5.47;4.15;;;;;;;10.42;71.00;98903.90;1764644;80;21629;-69
2021/05/13 03:13:55;;;;;;;9.85;4.87;;;;;;;10.49;70.97;98901.58;1750963;81;21550;-70
2021/05/13 03:16:22;;;;;;;8.45;4.60;;;;;;;10.69;70.65;98906.98;1760057;80;21094;-69
2021/05/13 03:18:51;;;;;;;5.03;4.08;;;;;;;10.74;70.54;98900.36;1757636;80;21043;-69
2021/05/13 03:21:28;;;;;;;8.35;4.97;;;;;;;10.77;70.67;98901.91;1750211;80;21089;-69
2021/05/13 03:24:11;;;;;;;6.30;4.28;;;;;;;10.75;70.81;98893.25;1757164;81;21613;-69
2021/05/13 03:26:40;;;;;;;6.97;4.50;;;;;;;10.85;70.62;98892.00;1756872;80;21011;-70
2021/05/13 03:29:00;;;;;;;7.22;5.05;;;;;;;11.03;70.22;98900.98;1751196;80;21667;-69
2021/05/13 03:31:26;;;;;;;7.50;4.72;;;;;;;11.10;70.23;98894.67;1759736;80;21106;-69
2021/05/13 03:33:53;;;;;;;6.80;4.40;;;;;;;11.14;70.24;98904.05;1750099;80;21047;-71
2021/05/13 03:36:19;;;;;;;6.03;3.85;;;;;;;11.34;70.15;98904.12;1756727;80;21039;-72
2021/05/13 03:38:45;;;;;;;5.62;4.05;;;;;;;11.69;69.13;98904.14;1765078;80;21018;-72
2021/05/13 03:41:12;;;;;;;5.78;4.28;;;;;;;11.85;68.42;98900.48;1761867;81;21114;-72
2021/05/13 03:43:38;;;;;;;6.95;4.70;;;;;;;11.87;68.16;98913.62;1776572;80;21097;-72
2021/05/13 03:46:05;;;;;;;6.65;4.92;;;;;;;11.91;68.14;98909.21;1715126;81;21043;-72
2021/05/13 03:48:31;;;;;;;5.03;4.20;;;;;;;12.15;67.69;98910.67;1754936;81;21031;-72
2021/05/13 03:50:58;;;;;;;6.65;4.40;;;;;;;12.49;66.98;98908.91;1751861;80;21039;-72
2021/05/13 03:53:24;;;;;;;6.60;4.25;;;;;;;12.93;65.59;98902.63;1762406;81;21066;-72
2021/05/13 03:55:52;;;;;;;7.45;4.15;;;;;;;13.10;64.33;98906.34;1767988;80;21019;-72
2021/05/13 03:58:21;;;;;;;6.80;4.72;;;;;;;13.08;64.27;98908.79;1733867;81;21039;-74
2021/05/13 04:01:04;;;;;;;29.52;19.75;;;;;;;12.95;64.34;98909.97;1692247;84;21064;-72
2021/05/13 04:03:16;;;;;;;18.75;5.42;;;;;;;12.81;64.49;98918.86;1686133;83;21598;-71
2021/05/13 04:05:42;;;;;;;21.33;5.05;;;;;;;12.64;64.81;98918.60;1701475;84;21107;-72
2021/05/13 04:08:09;;;;;;;4.83;3.92;;;;;;;12.59;65.00;98922.17;1688247;84;21063;-71
2021/05/13 04:10:37;;;;;;;12.93;4.90;;;;;;;12.61;64.95;98917.57;1693244;84;21590;-72
2021/05/13 04:13:05;;;;;;;5.80;4.37;;;;;;;12.56;65.24;98913.18;1704875;84;21517;-71
2021/05/13 04:15:31;;;;;;;6.45;4.20;;;;;;;12.53;65.31;98911.65;1701850;84;21066;-71
2021/05/13 04:17:58;;;;;;;12.43;4.87;;;;;;;12.53;65.25;98911.65;1688148;84;21100;-72
2021/05/13 04:20:25;;;;;;;19.77;4.67;;;;;;;12.60;65.11;98910.09;1710642;84;21078;-72
2021/05/13 04:22:51;;;;;;;7.40;4.22;;;;;;;12.81;64.80;98907.74;1763394;81;21046;-72
2021/05/13 04:25:17;;;;;;;5.95;4.10;;;;;;;13.13;64.07;98909.19;1746843;80;20994;-72
2021/05/13 04:27:43;;;;;;;6.33;4.60;;;;;;;13.41;62.70;98903.47;1756089;81;21039;-73
2021/05/13 04:30:11;;;;;;;6.17;4.75;;;;;;;13.75;62.35;98898.87;1760504;80;21085;-72
2021/05/13 04:32:38;;;;;;;8.18;4.60;;;;;;;14.51;60.84;98900.73;1756567;81;21100;-72
2021/05/13 04:35:06;;;;;;;7.17;5.00;;;;;;;15.27;58.70;98906.91;1771809;80;21055;-72
2021/05/13 04:37:32;;;;;;;6.47;4.60;;;;;;;15.86;56.30;98897.17;1745523;81;21031;-71
2021/05/13 04:39:58;;;;;;;7.12;4.35;;;;;;;16.12;54.27;98896.22;1747946;81;21049;-72
2021/05/13 04:42:25;;;;;;;6.72;5.05;;;;;;;15.96;54.20;98896.19;1761029;80;21078;-72
2021/05/13 04:44:53;;;;;;;7.30;4.53;;;;;;;15.66;54.46;98896.58;1766521;80;21027;-73
2021/05/13 04:48:08;;;;;;;5.20;4.35;;;;;;;15.52;54.59;98897.20;1768737;80;21015;-72
2021/05/13 04:49:51;;;;;;;7.47;4.08;;;;;;;15.40;54.69;98898.00;1733882;80;21039;-72
2021/05/13 04:52:20;;;;;;;5.80;4.42;;;;;;;15.21;54.31;98897.73;1759243;80;21080;-70
2021/05/13 04:54:53;;;;;;;7.00;4.60;;;;;;;15.00;54.52;98896.30;1764683;80;21055;-72
2021/05/13 04:57:20;;;;;;;7.17;4.33;;;;;;;14.86;54.86;98903.51;1755117;80;21587;-70
2021/05/13 04:59:46;;;;;;;5.20;4.30;;;;;;;14.74;55.60;98899.80;1768335;80;22312;-72
2021/05/13 05:02:12;;;;;;;39.30;27.02;;;;;;;14.67;55.40;98895.26;1763307;80;21538;-72
2021/05/13 05:04:39;;;;;;;21.73;9.60;;;;;;;14.63;54.98;98893.84;1774630;80;21057;-73
2021/05/13 05:07:05;;;;;;;5.78;4.33;;;;;;;14.56;55.29;98893.63;1772754;80;21046;-71
2021/05/13 05:09:31;;;;;;;22.93;5.95;;;;;;;14.54;55.75;98895.59;1778040;80;21022;-72
2021/05/13 05:11:58;;;;;;;5.30;4.30;;;;;;;14.67;55.78;98896.59;1772169;80;21081;-73
2021/05/13 05:14:25;;;;;;;5.47;4.75;;;;;;;14.90;55.21;98896.39;1764130;80;21073;-72
2021/05/13 05:16:52;;;;;;;6.78;4.35;;;;;;;15.08;54.31;98901.66;1754766;82;21062;-73
2021/05/13 05:19:18;;;;;;;6.60;4.10;;;;;;;15.20;54.24;98890.23;1754879;82;21062;-73
2021/05/13 05:21:45;;;;;;;6.65;3.95;;;;;;;15.26;53.49;98890.11;1754948;80;21038;-72
2021/05/13 05:24:11;;;;;;;5.75;4.12;;;;;;;15.13;53.41;98885.22;1754734;82;21023;-73
2021/05/13 05:26:38;;;;;;;10.18;4.53;;;;;;;14.99;53.80;98885.30;1759909;80;21583;-71
2021/05/13 05:29:04;;;;;;;14.80;4.62;;;;;;;14.96;54.30;98888.30;1763608;80;21090;-72
2021/05/13 05:31:31;;;;;;;6.22;3.42;;;;;;;15.12;54.13;98887.53;1764551;80;21078;-71
2021/05/13 05:33:57;;;;;;;19.02;4.00;;;;;;;15.35;53.11;98886.48;1760192;81;21048;-72
2021/05/13 05:36:26;;;;;;;7.50;4.40;;;;;;;15.49;52.52;98879.70;1759891;81;21652;-72
2021/05/13 05:38:51;;;;;;;5.78;3.62;;;;;;;15.55;52.93;98879.06;1766150;80;21049;-73
2021/05/13 05:41:18;;;;;;;6.78;3.40;;;;;;;15.78;51.38;98882.95;1754864;81;21076;-74
2021/05/13 05:43:44;;;;;;;4.37;3.55;;;;;;;15.89;50.75;98876.87;1766259;80;21023;-73
2021/05/13 05:46:11;;;;;;;4.58;3.85;;;;;;;15.99;51.44;98882.55;1773536;80;21517;-73
2021/05/13 05:48:37;;;;;;;6.65;3.72;;;;;;;16.09;50.36;98886.38;1778067;80;21533;-73
2021/05/13 05:51:04;;;;;;;8.80;3.50;;;;;;;16.22;50.36;98888.89;1766567;80;21050;-74
2021/05/13 05:53:30;;;;;;;4.08;3.33;;;;;;;16.38;49.13;98883.22;1785104;80;21044;-71
2021/05/13 05:55:57;;;;;;;4.87;3.05;;;;;;;16.36;48.50;98879.91;1760034;80;21044;-72
2021/05/13 05:58:23;;;;;;;28.77;5.72;;;;;;;16.46;48.43;98887.73;1760249;81;21063;-72
2021/05/13 06:00:49;;;;;;;15.55;4.35;;;;;;;16.66;49.11;98889.55;1765650;80;21048;-73
2021/05/13 06:03:15;;;;;;;8.43;3.77;;;;;;;16.92;49.15;98884.05;1788166;80;21038;-73
2021/05/13 06:05:42;;;;;;;5.50;2.60;;;;;;;17.02;48.06;98891.86;1767773;80;21018;-72
2021/05/13 06:08:08;;;;;;;3.65;2.72;;;;;;;17.16;47.15;98880.48;1735431;82;21066;-71
2021/05/13 06:10:34;;;;;;;4.78;3.10;;;;;;;17.24;46.27;98888.13;1718730;82;21019;-73
2021/05/13 06:13:01;;;;;;;5.42;2.77;;;;;;;17.27;46.65;98883.79;1721481;83;21058;-73
2021/05/13 06:15:27;;;;;;;4.12;2.98;;;;;;;17.41;46.34;98887.06;1732315;82;21530;-73
2021/05/13 06:17:53;;;;;;;6.12;2.30;;;;;;;17.59;45.97;98886.00;1728115;82;21059;-73
2021/05/13 06:20:24;;;;;;;4.22;2.70;;;;;;;17.65;44.59;98891.98;1726133;82;21079;-73
2021/05/13 06:22:51;;;;;;;3.77;2.70;;;;;;;17.63;44.75;98891.31;1735236;82;21062;-72
2021/05/13 06:25:17;;;;;;;3.90;2.83;;;;;;;17.60;44.52;98888.49;1729702;82;21059;-72
2021/05/13 06:27:44;;;;;;;4.42;2.40;;;;;;;17.68;43.79;98894.30;1736596;82;21062;-72
2021/05/13 06:30:10;;;;;;;5.62;2.90;;;;;;;17.72;45.22;98884.09;1735314;81;21118;-75
2021/05/13 06:32:37;;;;;;;5.20;2.58;;;;;;;17.88;43.94;98888.50;1752165;82;21050;-74
2021/05/13 06:35:04;;;;;;;4.47;2.52;;;;;;;17.95;44.61;98884.16;1729939;82;21022;-75
2021/05/13 06:37:31;;;;;;;6.25;2.60;;;;;;;18.00;44.00;98883.12;1724001;82;21573;-75
2021/05/13 06:39:57;;;;;;;5.15;2.30;;;;;;;18.06;43.86;98883.75;1722167;83;21627;-75
2021/05/13 06:42:23;;;;;;;5.87;2.47;;;;;;;18.09;43.04;98892.75;1712960;83;21051;-74
2021/05/13 06:44:50;;;;;;;3.85;2.22;;;;;;;18.11;43.50;98900.10;1742598;80;21050;-74
2021/05/13 06:47:16;;;;;;;6.75;4.95;;;;;;;18.10;43.23;98897.09;1763074;81;21018;-75
2021/05/13 06:49:42;;;;;;;8.40;3.55;;;;;;;17.91;43.83;98902.87;1756292;81;21031;-78
2021/05/13 06:52:09;;;;;;;6.03;2.58;;;;;;;17.78;43.56;98899.44;1751753;80;21012;-75
2021/05/13 06:54:35;;;;;;;4.95;2.60;;;;;;;17.69;43.67;98888.77;1764774;80;21035;-78
2021/05/13 06:57:01;;;;;;;3.58;2.42;;;;;;;17.73;43.96;98891.94;1760472;80;21013;-76
2021/05/13 06:59:29;;;;;;;2.20;1.85;;;;;;;17.70;43.35;98885.61;1751029;81;21066;-77
2021/05/13 07:01:56;;;;;;;4.83;2.47;;;;;;;17.46;43.48;98888.72;1755557;80;21061;-77
2021/05/13 07:04:23;;;;;;;4.10;2.45;;;;;;;17.30;44.34;98884.77;1761912;80;21070;-76
2021/05/13 07:06:49;;;;;;;7.40;2.33;;;;;;;17.29;45.04;98875.08;1759769;80;20999;-75
2021/05/13 07:09:16;;;;;;;3.35;2.45;;;;;;;17.45;45.54;98883.03;1748084;80;21100;-76
2021/05/13 07:11:42;;;;;;;4.50;2.40;;;;;;;17.71;45.14;98876.59;1770973;80;21032;-75
2021/05/13 07:14:10;;;;;;;3.45;2.58;;;;;;;17.91;44.14;98878.80;1757780;80;21039;-76
2021/05/13 07:16:36;;;;;;;4.08;2.45;;;;;;;17.95;43.81;98871.59;1752287;80;21034;-76
2021/05/13 07:31:12;;;;;;;3.72;2.60;;;;;;;19.01;41.84;98862.86;1787705;78;22886;-66
2021/05/13 07:33:39;;;;;;;16.82;3.33;;;;;;;18.63;42.65;98866.89;1766290;79;21029;-67
2021/05/13 07:36:06;;;;;;;9.88;2.70;;;;;;;18.45;42.95;98865.88;1760337;81;21088;-66
2021/05/13 07:38:34;;;;;;;4.78;2.00;;;;;;;18.32;42.88;98863.81;1779050;80;21061;-67
2021/05/13 07:41:03;;;;;;;2.65;1.90;;;;;;;18.25;42.31;98865.53;1772014;79;20974;-66
2021/05/13 07:43:30;;;;;;;13.72;2.42;;;;;;;18.07;41.15;98870.70;1789033;80;21057;-67
2021/05/13 07:45:56;;;;;;;10.88;4.05;;;;;;;17.84;41.97;98874.16;1774301;79;21067;-68
2021/05/13 07:48:23;;;;;;;6.85;3.20;;;;;;;17.67;42.47;98873.91;1767402;80;21603;-66
2021/05/13 07:50:49;;;;;;;5.35;2.10;;;;;;;17.60;43.05;98871.63;1759418;80;21074;-67
2021/05/13 07:53:15;;;;;;;3.30;2.00;;;;;;;17.58;42.97;98872.30;1766640;79;21005;-68
2021/05/13 07:55:42;;;;;;;5.67;2.33;;;;;;;17.52;42.91;98866.64;1760727;81;21060;-68
2021/05/13 07:58:09;;;;;;;2.85;2.20;;;;;;;17.45;43.71;98873.68;1770744;79;21058;-69
2021/05/13 08:00:35;;;;;;;6.85;2.85;;;;;;;17.38;43.42;98863.86;1768773;79;21035;-68
2021/05/13 08:03:02;;;;;;;5.70;2.80;;;;;;;17.33;43.85;98869.75;1770359;80;21026;-68
2021/05/13 08:05:28;;;;;;;5.35;2.87;;;;;;;17.39;44.15;98876.22;1766472;79;21024;-68
2021/05/13 08:07:54;;;;;;;18.30;3.50;;;;;;;17.50;44.50;98869.98;1760526;81;21059;-67
2021/05/13 08:10:21;;;;;;;10.43;2.92;;;;;;;17.67;43.95;98861.88;1772469;80;20998;-67
2021/05/13 08:12:47;;;;;;;12.65;3.08;;;;;;;17.82;43.13;98872.16;1761069;79;21593;-68
2021/05/13 08:15:14;;;;;;;13.68;3.22;;;;;;;17.89;43.69;98866.09;1757124;81;21026;-68
2021/05/13 08:17:42;;;;;;;11.28;3.08;;;;;;;17.89;42.65;98864.77;1764079;79;21530;-67
2021/05/13 08:20:12;;;;;;;4.10;2.35;;;;;;;17.73;42.52;98873.73;1777795;80;21585;-68
2021/05/13 08:22:41;;;;;;;4.42;2.15;;;;;;;17.55;42.86;98867.31;1776291;81;21589;-68
2021/05/13 08:25:09;;;;;;;6.03;2.70;;;;;;;17.37;42.81;98877.73;1765954;79;21055;-68
2021/05/13 08:27:36;;;;;;;4.00;2.35;;;;;;;17.16;43.81;98877.81;1782753;80;21049;-68
2021/05/13 08:30:07;;;;;;;6.60;2.40;;;;;;;17.08;44.01;98869.81;1775181;80;21110;-67
2021/05/13 08:32:33;;;;;;;4.33;2.70;;;;;;;17.09;44.13;98874.16;1763244;80;20993;-68
2021/05/13 08:35:00;;;;;;;9.70;3.02;;;;;;;17.07;44.58;98869.47;1763601;80;21042;-68
2021/05/13 08:37:27;;;;;;;9.18;2.95;;;;;;;17.12;44.50;98863.63;1762073;80;21051;-68
2021/05/13 08:39:55;;;;;;;9.73;2.45;;;;;;;17.16;44.33;98865.80;1756633;80;21564;-67
2021/05/13 08:42:21;;;;;;;12.40;3.65;;;;;;;17.22;44.05;98866.93;1759351;80;21652;-66
2021/05/13 08:44:48;;;;;;;3.95;2.30;;;;;;;17.32;44.11;98862.73;1765541;80;21577;-68
2021/05/13 08:47:14;;;;;;;42.48;5.83;;;;;;;17.41;43.58;98864.87;1760154;81;21084;-68
2021/05/13 08:49:41;;;;;;;5.97;2.77;;;;;;;17.38;42.96;98855.84;1760237;80;21105;-68
2021/05/13 08:52:11;;;;;;;11.22;2.85;;;;;;;17.38;43.88;98866.05;1760255;81;21058;-67
2021/05/13 08:54:56;;;;;;;5.90;2.30;;;;;;;17.43;42.76;98862.35;1760161;81;21066;-67
2021/05/13 08:57:22;;;;;;;4.45;2.30;;;;;;;17.40;41.31;98860.01;1774443;80;21089;-68
2021/05/13 08:59:49;;;;;;;5.60;2.58;;;;;;;17.35;41.28;98855.20;1791163;80;21069;-68
2021/05/13 09:02:16;;;;;;;5.17;2.83;;;;;;;17.34;42.54;98864.70;1776495;80;21080;-68
2021/05/13 09:04:49;;;;;;;4.15;2.65;;;;;;;17.44;42.36;98864.02;1760280;80;21613;-68
2021/05/13 09:07:28;;;;;;;19.13;3.27;;;;;;;17.51;43.03;98860.96;1760515;81;21081;-68
2021/05/13 09:10:09;;;;;;;4.72;2.20;;;;;;;17.61;42.13;98866.10;1771001;80;21732;-67
2021/05/13 09:12:40;;;;;;;6.55;2.50;;;;;;;17.61;41.40;98869.27;1760216;81;21863;-69
2021/05/13 09:15:22;;;;;;;3.50;2.85;;;;;;;17.60;42.92;98863.61;1758924;80;21061;-68
2021/05/13 09:17:58;;;;;;;4.35;2.60;;;;;;;17.62;42.04;98865.58;1759669;81;21090;-67
2021/05/13 09:20:39;;;;;;;4.12;2.50;;;;;;;17.46;42.10;98866.00;1759887;81;21076;-67
2021/05/13 09:23:23;;;;;;;4.40;2.30;;;;;;;17.36;42.94;98861.37;1760327;80;21529;-67
2021/05/13 09:26:11;;;;;;;7.20;2.47;;;;;;;17.37;42.12;98856.36;1760464;81;21608;-69
2021/05/13 09:28:39;;;;;;;5.33;2.70;;;;;;;17.39;42.92;98870.36;1769247;80;21018;-67
2021/05/13 09:31:06;;;;;;;8.95;2.90;;;;;;;17.52;43.25;98865.82;1760069;81;21089;-68
2021/05/13 09:33:42;;;;;;;4.65;2.47;;;;;;;17.66;42.72;98858.88;1760809;80;21059;-67
2021/05/13 09:36:20;;;;;;;4.37;2.67;;;;;;;17.75;41.84;98860.52;1782074;80;21065;-67
2021/05/13 09:38:46;;;;;;;5.40;2.60;;;;;;;17.76;42.53;98861.34;1791223;80;20998;-68
2021/05/13 09:41:29;;;;;;;4.47;2.72;;;;;;;17.70;42.32;98852.19;1756360;80;21526;-68
2021/05/13 09:43:55;;;;;;;4.90;2.47;;;;;;;17.57;43.00;98866.62;1790807;80;21006;-68
2021/05/13 09:46:32;;;;;;;7.45;5.17;;;;;;;17.49;42.66;98854.98;1786561;80;21073;-68
2021/05/13 09:48:58;;;;;;;4.95;2.70;;;;;;;17.50;42.26;98847.27;1749800;80;21053;-68
2021/05/13 09:51:32;;;;;;;6.50;3.08;;;;;;;17.53;43.52;98864.30;1740002;82;21050;-67
2021/05/13 09:54:15;;;;;;;3.50;2.37;;;;;;;17.70;43.58;98866.89;1745098;80;21033;-67
2021/05/13 09:56:51;;;;;;;3.42;2.60;;;;;;;17.81;42.85;98857.63;1776758;80;21067;-68
2021/05/13 09:59:31;;;;;;;17.07;3.50;;;;;;;17.93;42.19;98852.70;1747624;80;22149;-67
2021/05/13 10:02:06;;;;;;;4.22;2.35;;;;;;;18.00;42.53;98849.68;1747925;80;21021;-67
2021/05/13 10:04:33;;;;;;;6.85;2.60;;;;;;;18.13;41.52;98844.58;1744627;81;21606;-67
2021/05/13 10:07:00;;;;;;;3.40;2.40;;;;;;;18.16;41.81;98846.06;1751515;80;21058;-68
2021/05/13 10:09:27;;;;;;;5.10;2.52;;;;;;;18.22;41.32;98854.69;1748588;81;21053;-68
2021/05/13 10:11:58;;;;;;;4.05;2.40;;;;;;;18.21;41.29;98849.03;1741851;80;21557;-67
2021/05/13 10:14:28;;;;;;;4.60;2.58;;;;;;;18.05;41.15;98844.63;1774700;80;21039;-68
2021/05/13 10:16:57;;;;;;;4.60;2.80;;;;;;;17.89;41.61;98847.38;1754838;80;21067;-69
2021/05/13 10:19:28;;;;;;;41.30;4.67;;;;;;;17.80;41.65;98843.44;1760777;80;21581;-67
2021/05/13 10:21:59;;;;;;;5.85;2.35;;;;;;;17.72;42.34;98843.47;1770323;81;21082;-69
2021/05/13 10:24:24;;;;;;;6.80;2.62;;;;;;;17.69;42.27;98835.81;1749092;80;21506;-67
2021/05/13 10:26:51;;;;;;;58.33;6.25;;;;;;;17.76;42.16;98836.78;1756756;80;21625;-67
2021/05/13 10:29:26;;;;;;;3.85;2.98;;;;;;;17.86;41.76;98837.87;1758044;81;21703;-67
2021/05/13 10:32:22;;;;;;;8.10;2.92;;;;;;;17.84;41.78;98830.03;1753402;80;22130;-67
2021/05/13 10:34:54;;;;;;;4.80;2.50;;;;;;;17.81;42.49;98825.05;1747158;81;21045;-68
2021/05/13 10:37:43;;;;;;;6.62;2.33;;;;;;;17.91;42.00;98822.12;1753482;80;21609;-68
2021/05/13 10:40:18;;;;;;;4.10;2.40;;;;;;;17.84;39.74;98811.30;1781395;80;21014;-69
2021/05/13 10:42:44;;;;;;;2.40;1.92;;;;;;;17.61;40.39;98815.80;1759864;80;21106;-67
2021/05/13 10:45:34;;;;;;;3.37;2.47;;;;;;;17.54;40.91;98823.69;1760015;80;21085;-67
2021/05/13 10:48:27;;;;;;;6.72;3.50;;;;;;;17.61;40.38;98807.77;1748657;80;21070;-68
2021/05/13 10:51:03;;;;;;;11.63;3.05;;;;;;;17.74;40.85;98806.70;1768419;80;21628;-66
2021/05/13 10:53:47;;;;;;;4.47;2.47;;;;;;;18.00;40.85;98814.91;1704878;82;21083;-68
2021/05/13 10:56:34;;;;;;;4.42;2.70;;;;;;;18.01;40.63;98803.20;1694941;82;21082;-70
2021/05/13 10:59:14;;;;;;;13.05;3.00;;;;;;;18.04;40.75;98801.48;1745207;80;21704;-69
2021/05/13 11:01:51;;;;;;;3.72;2.67;;;;;;;18.10;40.62;98807.46;1739898;82;21115;-69
2021/05/13 11:04:28;;;;;;;4.47;2.67;;;;;;;18.23;40.06;98808.70;1746351;80;21097;-69
2021/05/13 11:07:20;;;;;;;3.90;2.17;;;;;;;18.25;39.64;98809.34;1741576;81;21098;-69
2021/05/13 11:09:54;;;;;;;11.68;3.20;;;;;;;18.28;40.26;98809.81;1759985;80;21061;-70
2021/05/13 11:12:38;;;;;;;3.42;2.25;;;;;;;18.37;39.55;98810.58;1780001;80;21042;-69
2021/05/13 11:15:14;;;;;;;6.28;3.10;;;;;;;18.38;38.97;98810.91;1739744;81;21033;-70
2021/05/13 11:17:53;;;;;;;5.95;3.02;;;;;;;18.40;40.10;98811.58;1745621;80;21058;-70
2021/05/13 11:20:30;;;;;;;4.60;2.67;;;;;;;18.51;40.64;98815.12;1760220;81;21038;-69
2021/05/13 11:23:16;;;;;;;6.85;2.77;;;;;;;18.43;39.11;98824.58;1755535;80;20994;-69
2021/05/13 11:25:50;;;;;;;8.08;2.90;;;;;;;18.11;39.90;98818.50;1737090;81;21027;-70
2021/05/13 11:28:41;;;;;;;4.08;2.85;;;;;;;18.01;40.58;98815.23;1741052;81;21052;-69
2021/05/13 11:31:13;;;;;;;3.27;2.42;;;;;;;18.00;40.46;98817.58;1761712;80;21099;-69
2021/05/13 11:33:54;;;;;;;5.30;2.92;;;;;;;17.92;40.30;98814.95;1775230;80;21003;-69
2021/05/13 11:36:25;;;;;;;10.78;3.30;;;;;;;17.75;40.33;98816.39;1754908;80;21077;-70
2021/05/13 11:39:06;;;;;;;4.58;2.90;;;;;;;17.80;41.01;98822.04;1774488;81;21584;-70
2021/05/13 11:41:29;;;;;;;5.65;2.95;;;;;;;17.98;40.89;98812.90;1749498;80;21027;-70
2021/05/13 11:43:55;;;;;;;4.97;2.85;;;;;;;18.11;41.16;98814.48;1779693;80;21645;-70
2021/05/13 11:46:24;;;;;;;4.17;2.55;;;;;;;18.12;40.77;98814.81;1765925;80;21069;-70
2021/05/13 11:48:51;;;;;;;5.50;2.80;;;;;;;18.12;41.40;98824.18;1759272;80;21027;-69
2021/05/13 11:51:27;;;;;;;5.53;2.90;;;;;;;18.06;41.01;98814.19;1746685;81;21027;-70
2021/05/13 11:53:55;;;;;;;5.08;2.60;;;;;;;18.05;41.75;98813.86;1751601;80;21094;-70
2021/05/13 11:56:21;;;;;;;31.40;4.50;;;;;;;18.08;41.13;98815.34;1774775;80;21577;-71
2021/05/13 11:58:53;;;;;;;12.47;3.42;;;;;;;17.94;41.09;98800.91;1781483;80;21590;-70
2021/05/13 12:01:38;;;;;;;3.77;2.80;;;;;;;17.97;41.17;98824.12;1759837;80;21580;-71